sensor_id;sensor_type;location;lat;lon;timestamp;temperature;humidity
22456;DHT22;11395;53.204;6.502;2023-08-30T00:01:06;22.70;93.80
22456;DHT22;11395;53.204;6.502;2023-08-30T00:03:32;22.70;94.60
22456;DHT22;11395;53.204;6.502;2023-08-30T00:06:03;22.70;95.10
22456;DHT22;11395;53.204;6.502;2023-08-30T00:08:31;22.70;95.40
22456;DHT22;11395;53.204;6.502;2023-08-30T00:10:57;22.70;94.20
22456;DHT22;11395;53.204;6.502;2023-08-30T00:13:29;22.80;94.60
22456;DHT22;11395;53.204;6.502;2023-08-30T00:15:56;22.70;95.90
22456;DHT22;11395;53.204;6.502;2023-08-30T00:18:22;22.70;95.30
22456;DHT22;11395;53.204;6.502;2023-08-30T00:20:49;22.70;95.30
22456;DHT22;11395;53.204;6.502;2023-08-30T00:23:15;22.60;94.20
22456;DHT22;11395;53.204;6.502;2023-08-30T00:25:42;22.70;94.70
22456;DHT22;11395;53.204;6.502;2023-08-30T00:28:09;22.60;94.10
22456;DHT22;11395;53.204;6.502;2023-08-30T00:30:35;22.60;94.70
22456;DHT22;11395;53.204;6.502;2023-08-30T00:33:04;22.60;95.00
22456;DHT22;11395;53.204;6.502;2023-08-30T00:35:30;22.60;95.50
22456;DHT22;11395;53.204;6.502;2023-08-30T00:37:56;22.60;95.10
22456;DHT22;11395;53.204;6.502;2023-08-30T00:40:25;22.50;95.10
22456;DHT22;11395;53.204;6.502;2023-08-30T00:42:52;22.70;95.80
22456;DHT22;11395;53.204;6.502;2023-08-30T00:45:19;22.60;95.40
22456;DHT22;11395;53.204;6.502;2023-08-30T00:47:45;22.60;95.70
22456;DHT22;11395;53.204;6.502;2023-08-30T00:50:11;22.60;95.70
22456;DHT22;11395;53.204;6.502;2023-08-30T00:52:38;22.60;94.70
22456;DHT22;11395;53.204;6.502;2023-08-30T00:55:04;22.50;95.30
22456;DHT22;11395;53.204;6.502;2023-08-30T00:57:31;22.50;95.40
22456;DHT22;11395;53.204;6.502;2023-08-30T00:59:58;22.50;94.60
22456;DHT22;11395;53.204;6.502;2023-08-30T01:02:24;22.50;95.80
22456;DHT22;11395;53.204;6.502;2023-08-30T01:04:50;22.40;95.10
22456;DHT22;11395;53.204;6.502;2023-08-30T01:07:16;22.40;95.00
22456;DHT22;11395;53.204;6.502;2023-08-30T01:09:42;22.40;93.50
22456;DHT22;11395;53.204;6.502;2023-08-30T01:12:21;22.40;93.70
22456;DHT22;11395;53.204;6.502;2023-08-30T01:15:41;22.40;94.90
22456;DHT22;11395;53.204;6.502;2023-08-30T01:18:01;22.40;94.40
22456;DHT22;11395;53.204;6.502;2023-08-30T01:20:35;22.40;94.70
22456;DHT22;11395;53.204;6.502;2023-08-30T01:23:06;22.40;95.10
22456;DHT22;11395;53.204;6.502;2023-08-30T01:25:57;22.40;93.90
22456;DHT22;11395;53.204;6.502;2023-08-30T01:28:30;22.40;95.40
22456;DHT22;11395;53.204;6.502;2023-08-30T01:30:58;22.40;94.40
22456;DHT22;11395;53.204;6.502;2023-08-30T01:33:27;22.40;94.40
22456;DHT22;11395;53.204;6.502;2023-08-30T01:35:55;22.50;94.60
22456;DHT22;11395;53.204;6.502;2023-08-30T01:38:23;22.30;94.70
22456;DHT22;11395;53.204;6.502;2023-08-30T01:40:52;22.40;95.00
22456;DHT22;11395;53.204;6.502;2023-08-30T01:43:20;22.40;95.60
22456;DHT22;11395;53.204;6.502;2023-08-30T01:45:47;22.30;95.70
22456;DHT22;11395;53.204;6.502;2023-08-30T01:48:15;22.30;94.30
22456;DHT22;11395;53.204;6.502;2023-08-30T01:50:43;22.40;95.00
22456;DHT22;11395;53.204;6.502;2023-08-30T01:53:12;22.30;95.70
22456;DHT22;11395;53.204;6.502;2023-08-30T01:55:38;22.40;95.10
22456;DHT22;11395;53.204;6.502;2023-08-30T01:58:07;22.30;95.20
22456;DHT22;11395;53.204;6.502;2023-08-30T02:00:35;22.30;96.20
22456;DHT22;11395;53.204;6.502;2023-08-30T02:03:08;22.40;95.80
22456;DHT22;11395;53.204;6.502;2023-08-30T02:05:37;22.20;96.00
22456;DHT22;11395;53.204;6.502;2023-08-30T02:08:15;22.30;95.60
22456;DHT22;11395;53.204;6.502;2023-08-30T02:10:51;22.20;95.10
22456;DHT22;11395;53.204;6.502;2023-08-30T02:13:23;22.20;95.80
22456;DHT22;11395;53.204;6.502;2023-08-30T02:15:52;22.20;95.60
22456;DHT22;11395;53.204;6.502;2023-08-30T02:18:20;22.20;93.50
22456;DHT22;11395;53.204;6.502;2023-08-30T02:20:46;22.20;93.30
22456;DHT22;11395;53.204;6.502;2023-08-30T02:23:13;22.20;93.30
22456;DHT22;11395;53.204;6.502;2023-08-30T02:25:39;22.30;92.90
22456;DHT22;11395;53.204;6.502;2023-08-30T02:28:05;22.10;93.00
22456;DHT22;11395;53.204;6.502;2023-08-30T02:30:33;22.40;93.40
22456;DHT22;11395;53.204;6.502;2023-08-30T02:32:59;22.10;94.00
22456;DHT22;11395;53.204;6.502;2023-08-30T02:35:25;22.20;94.00
22456;DHT22;11395;53.204;6.502;2023-08-30T02:37:51;22.10;95.00
22456;DHT22;11395;53.204;6.502;2023-08-30T02:40:17;22.10;94.90
22456;DHT22;11395;53.204;6.502;2023-08-30T02:42:43;22.30;94.20
22456;DHT22;11395;53.204;6.502;2023-08-30T02:45:09;22.20;93.80
22456;DHT22;11395;53.204;6.502;2023-08-30T02:47:36;22.10;94.70
22456;DHT22;11395;53.204;6.502;2023-08-30T02:50:02;22.00;94.00
22456;DHT22;11395;53.204;6.502;2023-08-30T02:52:28;22.00;94.10
22456;DHT22;11395;53.204;6.502;2023-08-30T02:54:54;22.00;94.30
22456;DHT22;11395;53.204;6.502;2023-08-30T02:57:21;22.10;93.90
22456;DHT22;11395;53.204;6.502;2023-08-30T02:59:47;22.00;95.00
22456;DHT22;11395;53.204;6.502;2023-08-30T03:02:13;22.00;94.20
22456;DHT22;11395;53.204;6.502;2023-08-30T03:04:39;22.00;94.50
22456;DHT22;11395;53.204;6.502;2023-08-30T03:07:05;22.10;94.20
22456;DHT22;11395;53.204;6.502;2023-08-30T03:09:31;22.00;94.10
22456;DHT22;11395;53.204;6.502;2023-08-30T03:11:58;22.00;94.20
22456;DHT22;11395;53.204;6.502;2023-08-30T03:14:24;22.00;94.20
22456;DHT22;11395;53.204;6.502;2023-08-30T03:16:50;22.00;94.50
22456;DHT22;11395;53.204;6.502;2023-08-30T03:19:16;22.00;94.60
22456;DHT22;11395;53.204;6.502;2023-08-30T03:21:44;22.00;94.90
22456;DHT22;11395;53.204;6.502;2023-08-30T03:24:10;21.90;94.30
22456;DHT22;11395;53.204;6.502;2023-08-30T03:26:36;22.00;94.90
22456;DHT22;11395;53.204;6.502;2023-08-30T03:29:03;22.00;94.80
22456;DHT22;11395;53.204;6.502;2023-08-30T03:31:29;22.00;94.50
22456;DHT22;11395;53.204;6.502;2023-08-30T03:33:55;22.10;94.90
22456;DHT22;11395;53.204;6.502;2023-08-30T03:36:21;22.00;94.30
22456;DHT22;11395;53.204;6.502;2023-08-30T03:38:48;21.90;94.40
22456;DHT22;11395;53.204;6.502;2023-08-30T03:41:14;21.90;94.50
22456;DHT22;11395;53.204;6.502;2023-08-30T03:43:42;21.90;94.30
22456;DHT22;11395;53.204;6.502;2023-08-30T03:46:09;21.90;93.80
22456;DHT22;11395;53.204;6.502;2023-08-30T03:48:37;21.90;94.30
22456;DHT22;11395;53.204;6.502;2023-08-30T03:51:03;21.90;94.60
22456;DHT22;11395;53.204;6.502;2023-08-30T03:53:30;21.90;95.00
22456;DHT22;11395;53.204;6.502;2023-08-30T03:55:56;21.90;95.00
22456;DHT22;11395;53.204;6.502;2023-08-30T03:58:23;21.90;95.40
22456;DHT22;11395;53.204;6.502;2023-08-30T04:00:50;21.90;94.50
22456;DHT22;11395;53.204;6.502;2023-08-30T04:03:16;21.80;94.40
22456;DHT22;11395;53.204;6.502;2023-08-30T04:05:42;21.80;93.80
22456;DHT22;11395;53.204;6.502;2023-08-30T04:08:09;21.80;93.70
22456;DHT22;11395;53.204;6.502;2023-08-30T04:10:36;21.80;93.50
22456;DHT22;11395;53.204;6.502;2023-08-30T04:13:03;21.80;93.60
22456;DHT22;11395;53.204;6.502;2023-08-30T04:15:33;22.20;93.70
22456;DHT22;11395;53.204;6.502;2023-08-30T04:17:59;21.90;94.20
22456;DHT22;11395;53.204;6.502;2023-08-30T04:20:27;21.90;93.60
22456;DHT22;11395;53.204;6.502;2023-08-30T04:22:53;22.10;93.80
22456;DHT22;11395;53.204;6.502;2023-08-30T04:25:21;22.20;94.10
22456;DHT22;11395;53.204;6.502;2023-08-30T04:27:47;22.40;93.20
22456;DHT22;11395;53.204;6.502;2023-08-30T04:30:14;22.30;92.80
22456;DHT22;11395;53.204;6.502;2023-08-30T04:32:41;22.40;93.90
22456;DHT22;11395;53.204;6.502;2023-08-30T04:35:07;22.60;92.10
22456;DHT22;11395;53.204;6.502;2023-08-30T04:37:33;22.70;92.30
22456;DHT22;11395;53.204;6.502;2023-08-30T04:40:00;22.70;91.90
22456;DHT22;11395;53.204;6.502;2023-08-30T04:42:26;22.90;92.70
22456;DHT22;11395;53.204;6.502;2023-08-30T04:44:52;23.00;93.00
22456;DHT22;11395;53.204;6.502;2023-08-30T04:47:20;23.20;90.80
22456;DHT22;11395;53.204;6.502;2023-08-30T04:49:51;23.20;90.40
22456;DHT22;11395;53.204;6.502;2023-08-30T04:52:17;23.30;90.70
22456;DHT22;11395;53.204;6.502;2023-08-30T04:54:44;23.40;89.50
22456;DHT22;11395;53.204;6.502;2023-08-30T04:57:12;23.40;89.40
22456;DHT22;11395;53.204;6.502;2023-08-30T04:59:40;23.50;89.60
22456;DHT22;11395;53.204;6.502;2023-08-30T05:02:07;23.60;89.20
22456;DHT22;11395;53.204;6.502;2023-08-30T05:04:38;23.50;88.70
22456;DHT22;11395;53.204;6.502;2023-08-30T05:07:06;23.60;88.30
22456;DHT22;11395;53.204;6.502;2023-08-30T05:09:33;23.60;88.10
22456;DHT22;11395;53.204;6.502;2023-08-30T05:12:00;23.70;88.50
22456;DHT22;11395;53.204;6.502;2023-08-30T05:14:26;23.70;87.80
22456;DHT22;11395;53.204;6.502;2023-08-30T05:16:53;23.70;87.40
22456;DHT22;11395;53.204;6.502;2023-08-30T05:19:19;23.70;87.10
22456;DHT22;11395;53.204;6.502;2023-08-30T05:21:46;23.70;86.80
22456;DHT22;11395;53.204;6.502;2023-08-30T05:24:13;23.80;87.30
22456;DHT22;11395;53.204;6.502;2023-08-30T05:26:39;23.80;86.80
22456;DHT22;11395;53.204;6.502;2023-08-30T05:29:05;23.80;86.40
22456;DHT22;11395;53.204;6.502;2023-08-30T05:31:32;23.80;86.30
22456;DHT22;11395;53.204;6.502;2023-08-30T05:34:10;23.80;85.60
22456;DHT22;11395;53.204;6.502;2023-08-30T05:37:05;23.90;86.60
22456;DHT22;11395;53.204;6.502;2023-08-30T05:39:49;23.90;85.10
22456;DHT22;11395;53.204;6.502;2023-08-30T05:42:15;23.90;85.40
22456;DHT22;11395;53.204;6.502;2023-08-30T05:44:43;23.90;85.70
22456;DHT22;11395;53.204;6.502;2023-08-30T05:47:09;23.90;85.80
22456;DHT22;11395;53.204;6.502;2023-08-30T05:49:40;23.90;85.80
22456;DHT22;11395;53.204;6.502;2023-08-30T05:52:07;23.90;85.80
22456;DHT22;11395;53.204;6.502;2023-08-30T05:54:33;23.80;85.40
22456;DHT22;11395;53.204;6.502;2023-08-30T05:57:00;23.90;85.50
22456;DHT22;11395;53.204;6.502;2023-08-30T05:59:27;23.80;85.30
22456;DHT22;11395;53.204;6.502;2023-08-30T06:01:53;23.90;85.40
22456;DHT22;11395;53.204;6.502;2023-08-30T06:04:20;23.90;85.30
22456;DHT22;11395;53.204;6.502;2023-08-30T06:06:46;23.90;85.30
22456;DHT22;11395;53.204;6.502;2023-08-30T06:09:12;23.90;84.90
22456;DHT22;11395;53.204;6.502;2023-08-30T06:11:38;23.90;85.00
22456;DHT22;11395;53.204;6.502;2023-08-30T06:14:04;23.90;85.10
22456;DHT22;11395;53.204;6.502;2023-08-30T06:16:31;23.90;84.70
22456;DHT22;11395;53.204;6.502;2023-08-30T06:18:57;23.90;84.70
22456;DHT22;11395;53.204;6.502;2023-08-30T06:21:25;23.90;84.60
22456;DHT22;11395;53.204;6.502;2023-08-30T06:23:51;23.90;85.00
22456;DHT22;11395;53.204;6.502;2023-08-30T06:26:18;24.00;84.50
22456;DHT22;11395;53.204;6.502;2023-08-30T06:28:44;24.00;84.90
22456;DHT22;11395;53.204;6.502;2023-08-30T06:31:11;24.10;84.30
22456;DHT22;11395;53.204;6.502;2023-08-30T06:33:37;24.10;84.50
22456;DHT22;11395;53.204;6.502;2023-08-30T06:36:05;24.20;84.20
22456;DHT22;11395;53.204;6.502;2023-08-30T06:38:31;24.10;84.20
22456;DHT22;11395;53.204;6.502;2023-08-30T06:41:00;24.10;84.10
22456;DHT22;11395;53.204;6.502;2023-08-30T06:43:26;24.10;85.80
22456;DHT22;11395;53.204;6.502;2023-08-30T06:45:52;24.00;84.40
22456;DHT22;11395;53.204;6.502;2023-08-30T06:48:19;24.00;84.60
22456;DHT22;11395;53.204;6.502;2023-08-30T06:50:45;23.90;84.60
22456;DHT22;11395;53.204;6.502;2023-08-30T06:53:11;23.90;84.70
22456;DHT22;11395;53.204;6.502;2023-08-30T06:55:37;23.90;84.80
22456;DHT22;11395;53.204;6.502;2023-08-30T06:58:05;23.80;85.20
22456;DHT22;11395;53.204;6.502;2023-08-30T07:00:31;23.80;86.10
22456;DHT22;11395;53.204;6.502;2023-08-30T07:02:58;23.90;85.30
22456;DHT22;11395;53.204;6.502;2023-08-30T07:05:24;23.90;85.50
22456;DHT22;11395;53.204;6.502;2023-08-30T07:07:50;23.90;84.90
22456;DHT22;11395;53.204;6.502;2023-08-30T07:10:16;23.90;85.10
22456;DHT22;11395;53.204;6.502;2023-08-30T07:12:43;24.00;85.20
22456;DHT22;11395;53.204;6.502;2023-08-30T07:15:11;24.00;85.10
22456;DHT22;11395;53.204;6.502;2023-08-30T07:17:37;23.90;85.10
22456;DHT22;11395;53.204;6.502;2023-08-30T07:20:03;24.00;85.00
22456;DHT22;11395;53.204;6.502;2023-08-30T07:22:31;24.00;84.80
22456;DHT22;11395;53.204;6.502;2023-08-30T07:24:57;23.90;85.50
22456;DHT22;11395;53.204;6.502;2023-08-30T07:27:23;24.00;84.90
22456;DHT22;11395;53.204;6.502;2023-08-30T07:29:49;23.90;84.80
22456;DHT22;11395;53.204;6.502;2023-08-30T07:32:15;23.90;84.80
22456;DHT22;11395;53.204;6.502;2023-08-30T07:34:42;24.00;84.90
22456;DHT22;11395;53.204;6.502;2023-08-30T07:37:17;24.00;84.90
22456;DHT22;11395;53.204;6.502;2023-08-30T07:39:43;24.00;87.00
22456;DHT22;11395;53.204;6.502;2023-08-30T07:42:10;24.10;84.90
22456;DHT22;11395;53.204;6.502;2023-08-30T07:44:36;24.10;84.60
22456;DHT22;11395;53.204;6.502;2023-08-30T07:47:02;24.20;84.70
22456;DHT22;11395;53.204;6.502;2023-08-30T07:49:29;24.30;84.10
22456;DHT22;11395;53.204;6.502;2023-08-30T07:51:55;24.50;83.80
22456;DHT22;11395;53.204;6.502;2023-08-30T07:54:21;24.60;83.30
22456;DHT22;11395;53.204;6.502;2023-08-30T07:56:47;24.60;83.40
22456;DHT22;11395;53.204;6.502;2023-08-30T07:59:13;24.60;83.20
22456;DHT22;11395;53.204;6.502;2023-08-30T08:01:39;24.60;83.10
22456;DHT22;11395;53.204;6.502;2023-08-30T08:04:05;24.60;83.00
22456;DHT22;11395;53.204;6.502;2023-08-30T08:06:32;24.60;83.20
22456;DHT22;11395;53.204;6.502;2023-08-30T08:08:58;24.60;83.10
22456;DHT22;11395;53.204;6.502;2023-08-30T08:11:25;24.70;83.20
22456;DHT22;11395;53.204;6.502;2023-08-30T08:13:51;24.70;83.40
22456;DHT22;11395;53.204;6.502;2023-08-30T08:16:17;24.70;83.50
22456;DHT22;11395;53.204;6.502;2023-08-30T08:18:43;24.70;83.50
22456;DHT22;11395;53.204;6.502;2023-08-30T08:21:09;24.80;83.50
22456;DHT22;11395;53.204;6.502;2023-08-30T08:23:36;24.70;83.40
22456;DHT22;11395;53.204;6.502;2023-08-30T08:26:02;24.70;83.50
22456;DHT22;11395;53.204;6.502;2023-08-30T08:28:31;24.70;82.00
22456;DHT22;11395;53.204;6.502;2023-08-30T08:30:57;24.70;82.90
22456;DHT22;11395;53.204;6.502;2023-08-30T08:33:23;24.70;83.20
22456;DHT22;11395;53.204;6.502;2023-08-30T08:35:50;24.70;84.30
22456;DHT22;11395;53.204;6.502;2023-08-30T08:38:16;24.70;84.00
22456;DHT22;11395;53.204;6.502;2023-08-30T08:40:43;24.70;84.80
22456;DHT22;11395;53.204;6.502;2023-08-30T08:43:12;24.70;83.60
22456;DHT22;11395;53.204;6.502;2023-08-30T08:45:39;24.80;85.00
22456;DHT22;11395;53.204;6.502;2023-08-30T08:48:05;24.80;84.10
22456;DHT22;11395;53.204;6.502;2023-08-30T08:50:32;24.80;83.00
22456;DHT22;11395;53.204;6.502;2023-08-30T08:53:00;24.80;84.20
22456;DHT22;11395;53.204;6.502;2023-08-30T08:55:28;24.80;84.00
22456;DHT22;11395;53.204;6.502;2023-08-30T08:57:57;24.80;84.20
22456;DHT22;11395;53.204;6.502;2023-08-30T09:00:24;24.80;84.60
22456;DHT22;11395;53.204;6.502;2023-08-30T09:02:52;24.80;85.20
22456;DHT22;11395;53.204;6.502;2023-08-30T09:05:19;24.80;85.20
22456;DHT22;11395;53.204;6.502;2023-08-30T09:07:47;24.70;85.20
22456;DHT22;11395;53.204;6.502;2023-08-30T09:10:13;24.70;85.00
22456;DHT22;11395;53.204;6.502;2023-08-30T09:12:39;24.70;84.80
22456;DHT22;11395;53.204;6.502;2023-08-30T09:15:05;24.70;84.50
22456;DHT22;11395;53.204;6.502;2023-08-30T09:17:37;24.60;84.90
22456;DHT22;11395;53.204;6.502;2023-08-30T09:20:10;24.60;86.80
22456;DHT22;11395;53.204;6.502;2023-08-30T09:22:41;24.60;86.40
22456;DHT22;11395;53.204;6.502;2023-08-30T09:25:21;24.60;86.70
22456;DHT22;11395;53.204;6.502;2023-08-30T09:27:49;24.60;86.60
22456;DHT22;11395;53.204;6.502;2023-08-30T09:30:21;24.50;85.00
22456;DHT22;11395;53.204;6.502;2023-08-30T09:32:47;24.50;86.90
22456;DHT22;11395;53.204;6.502;2023-08-30T09:35:14;24.60;85.00
22456;DHT22;11395;53.204;6.502;2023-08-30T09:37:40;24.60;85.00
22456;DHT22;11395;53.204;6.502;2023-08-30T09:40:06;24.50;85.30
22456;DHT22;11395;53.204;6.502;2023-08-30T09:42:33;24.50;85.20
22456;DHT22;11395;53.204;6.502;2023-08-30T09:44:59;24.50;85.20
22456;DHT22;11395;53.204;6.502;2023-08-30T09:47:25;24.50;85.70
22456;DHT22;11395;53.204;6.502;2023-08-30T09:49:55;24.50;86.30
22456;DHT22;11395;53.204;6.502;2023-08-30T09:52:23;24.60;89.20
22456;DHT22;11395;53.204;6.502;2023-08-30T09:54:51;24.60;91.40
22456;DHT22;11395;53.204;6.502;2023-08-30T09:57:18;24.60;92.20
22456;DHT22;11395;53.204;6.502;2023-08-30T09:59:45;24.70;90.20
22456;DHT22;11395;53.204;6.502;2023-08-30T10:02:12;24.70;87.60
22456;DHT22;11395;53.204;6.502;2023-08-30T10:04:38;24.70;86.10
22456;DHT22;11395;53.204;6.502;2023-08-30T10:07:08;24.80;84.10
22456;DHT22;11395;53.204;6.502;2023-08-30T10:09:38;24.90;84.50
22456;DHT22;11395;53.204;6.502;2023-08-30T10:12:05;24.90;84.60
22456;DHT22;11395;53.204;6.502;2023-08-30T10:14:32;25.00;84.10
22456;DHT22;11395;53.204;6.502;2023-08-30T10:17:02;25.10;85.30
22456;DHT22;11395;53.204;6.502;2023-08-30T10:19:29;25.10;87.00
22456;DHT22;11395;53.204;6.502;2023-08-30T10:22:06;25.10;85.50
22456;DHT22;11395;53.204;6.502;2023-08-30T10:24:52;25.30;87.20
22456;DHT22;11395;53.204;6.502;2023-08-30T10:27:19;25.10;87.10
22456;DHT22;11395;53.204;6.502;2023-08-30T10:29:48;25.20;85.80
22456;DHT22;11395;53.204;6.502;2023-08-30T10:32:22;25.20;85.30
22456;DHT22;11395;53.204;6.502;2023-08-30T10:34:49;25.20;86.10
22456;DHT22;11395;53.204;6.502;2023-08-30T10:37:16;25.20;84.90
22456;DHT22;11395;53.204;6.502;2023-08-30T10:39:47;25.20;84.70
22456;DHT22;11395;53.204;6.502;2023-08-30T10:42:20;25.20;84.00
22456;DHT22;11395;53.204;6.502;2023-08-30T10:44:48;25.30;85.00
22456;DHT22;11395;53.204;6.502;2023-08-30T10:47:38;25.30;83.90
22456;DHT22;11395;53.204;6.502;2023-08-30T10:50:06;25.30;85.00
22456;DHT22;11395;53.204;6.502;2023-08-30T10:52:32;25.40;83.40
22456;DHT22;11395;53.204;6.502;2023-08-30T10:55:09;25.40;82.70
22456;DHT22;11395;53.204;6.502;2023-08-30T10:57:36;25.40;84.30
22456;DHT22;11395;53.204;6.502;2023-08-30T11:02:48;25.30;82.40
22456;DHT22;11395;53.204;6.502;2023-08-30T11:05:16;25.30;83.90
22456;DHT22;11395;53.204;6.502;2023-08-30T11:07:43;25.40;82.80
22456;DHT22;11395;53.204;6.502;2023-08-30T11:10:10;25.30;82.80
22456;DHT22;11395;53.204;6.502;2023-08-30T11:12:36;25.40;83.50
22456;DHT22;11395;53.204;6.502;2023-08-30T11:15:03;25.30;88.50
22456;DHT22;11395;53.204;6.502;2023-08-30T11:17:29;25.40;89.30
22456;DHT22;11395;53.204;6.502;2023-08-30T11:20:15;25.40;88.60
22456;DHT22;11395;53.204;6.502;2023-08-30T11:22:44;25.30;91.10
22456;DHT22;11395;53.204;6.502;2023-08-30T11:25:12;25.30;90.00
22456;DHT22;11395;53.204;6.502;2023-08-30T11:27:39;25.30;92.10
22456;DHT22;11395;53.204;6.502;2023-08-30T11:30:09;25.30;87.90
22456;DHT22;11395;53.204;6.502;2023-08-30T11:32:38;25.30;90.40
22456;DHT22;11395;53.204;6.502;2023-08-30T11:35:06;25.20;93.00
22456;DHT22;11395;53.204;6.502;2023-08-30T11:37:33;25.20;94.50
22456;DHT22;11395;53.204;6.502;2023-08-30T11:40:00;25.30;95.80
22456;DHT22;11395;53.204;6.502;2023-08-30T11:42:27;25.20;93.50
22456;DHT22;11395;53.204;6.502;2023-08-30T11:44:53;25.20;92.90
22456;DHT22;11395;53.204;6.502;2023-08-30T11:47:23;25.20;92.80
22456;DHT22;11395;53.204;6.502;2023-08-30T11:49:52;25.30;94.10
22456;DHT22;11395;53.204;6.502;2023-08-30T11:52:19;25.10;96.70
22456;DHT22;11395;53.204;6.502;2023-08-30T11:54:47;25.20;94.40
22456;DHT22;11395;53.204;6.502;2023-08-30T11:57:14;25.20;96.30
22456;DHT22;11395;53.204;6.502;2023-08-30T11:59:40;25.30;97.30
22456;DHT22;11395;53.204;6.502;2023-08-30T12:02:11;25.20;92.50
22456;DHT22;11395;53.204;6.502;2023-08-30T12:04:41;25.20;92.40
22456;DHT22;11395;53.204;6.502;2023-08-30T12:07:08;25.20;90.90
22456;DHT22;11395;53.204;6.502;2023-08-30T12:09:34;25.20;90.50
22456;DHT22;11395;53.204;6.502;2023-08-30T12:12:09;25.20;90.40
22456;DHT22;11395;53.204;6.502;2023-08-30T12:14:36;25.10;92.30
22456;DHT22;11395;53.204;6.502;2023-08-30T12:17:03;25.10;91.50
22456;DHT22;11395;53.204;6.502;2023-08-30T12:19:31;25.10;89.00
22456;DHT22;11395;53.204;6.502;2023-08-30T12:24:46;25.10;88.70
22456;DHT22;11395;53.204;6.502;2023-08-30T12:27:13;25.00;90.50
22456;DHT22;11395;53.204;6.502;2023-08-30T12:29:40;24.90;91.30
22456;DHT22;11395;53.204;6.502;2023-08-30T12:32:07;24.90;91.50
22456;DHT22;11395;53.204;6.502;2023-08-30T12:34:34;24.90;92.80
22456;DHT22;11395;53.204;6.502;2023-08-30T12:37:00;24.90;91.40
22456;DHT22;11395;53.204;6.502;2023-08-30T12:39:27;24.90;91.60
22456;DHT22;11395;53.204;6.502;2023-08-30T12:41:54;24.80;90.40
22456;DHT22;11395;53.204;6.502;2023-08-30T12:44:21;24.80;90.30
22456;DHT22;11395;53.204;6.502;2023-08-30T12:46:48;24.80;90.10
22456;DHT22;11395;53.204;6.502;2023-08-30T12:49:14;24.80;90.50
22456;DHT22;11395;53.204;6.502;2023-08-30T12:51:40;24.70;88.50
22456;DHT22;11395;53.204;6.502;2023-08-30T12:54:06;24.70;89.70
22456;DHT22;11395;53.204;6.502;2023-08-30T12:56:32;24.70;88.10
22456;DHT22;11395;53.204;6.502;2023-08-30T12:58:59;24.70;89.40
22456;DHT22;11395;53.204;6.502;2023-08-30T13:01:25;24.60;87.90
22456;DHT22;11395;53.204;6.502;2023-08-30T13:03:51;24.60;87.70
22456;DHT22;11395;53.204;6.502;2023-08-30T13:06:17;24.60;88.30
22456;DHT22;11395;53.204;6.502;2023-08-30T13:08:43;24.60;88.20
22456;DHT22;11395;53.204;6.502;2023-08-30T13:11:10;24.50;89.10
22456;DHT22;11395;53.204;6.502;2023-08-30T13:16:02;24.60;87.40
22456;DHT22;11395;53.204;6.502;2023-08-30T13:18:29;24.50;90.10
22456;DHT22;11395;53.204;6.502;2023-08-30T13:20:55;24.50;88.40
22456;DHT22;11395;53.204;6.502;2023-08-30T13:23:21;24.50;91.60
22456;DHT22;11395;53.204;6.502;2023-08-30T13:25:48;24.50;89.90
22456;DHT22;11395;53.204;6.502;2023-08-30T13:28:15;24.40;90.00
22456;DHT22;11395;53.204;6.502;2023-08-30T13:30:44;24.40;88.90
22456;DHT22;11395;53.204;6.502;2023-08-30T13:33:11;24.30;90.80
22456;DHT22;11395;53.204;6.502;2023-08-30T13:35:40;24.40;91.00
22456;DHT22;11395;53.204;6.502;2023-08-30T13:38:07;24.40;90.90
22456;DHT22;11395;53.204;6.502;2023-08-30T13:40:33;24.40;90.90
22456;DHT22;11395;53.204;6.502;2023-08-30T13:42:59;24.40;91.80
22456;DHT22;11395;53.204;6.502;2023-08-30T13:45:25;24.30;91.00
22456;DHT22;11395;53.204;6.502;2023-08-30T13:47:51;24.30;91.10
22456;DHT22;11395;53.204;6.502;2023-08-30T13:50:19;24.20;92.00
22456;DHT22;11395;53.204;6.502;2023-08-30T13:52:45;24.20;91.50
22456;DHT22;11395;53.204;6.502;2023-08-30T13:55:11;24.10;90.40
22456;DHT22;11395;53.204;6.502;2023-08-30T13:57:37;24.20;90.40
22456;DHT22;11395;53.204;6.502;2023-08-30T14:00:04;24.20;90.20
22456;DHT22;11395;53.204;6.502;2023-08-30T14:02:35;24.20;90.60
22456;DHT22;11395;53.204;6.502;2023-08-30T14:05:02;24.20;91.00
22456;DHT22;11395;53.204;6.502;2023-08-30T14:07:28;24.10;90.80
22456;DHT22;11395;53.204;6.502;2023-08-30T14:09:54;24.10;90.70
22456;DHT22;11395;53.204;6.502;2023-08-30T14:12:20;24.20;90.80
22456;DHT22;11395;53.204;6.502;2023-08-30T14:14:47;24.10;90.90
22456;DHT22;11395;53.204;6.502;2023-08-30T14:17:13;24.10;90.30
22456;DHT22;11395;53.204;6.502;2023-08-30T14:19:39;24.00;90.40
22456;DHT22;11395;53.204;6.502;2023-08-30T14:22:05;24.00;90.20
22456;DHT22;11395;53.204;6.502;2023-08-30T14:24:32;24.10;90.30
22456;DHT22;11395;53.204;6.502;2023-08-30T14:27:00;24.10;90.50
22456;DHT22;11395;53.204;6.502;2023-08-30T14:29:26;24.20;90.60
22456;DHT22;11395;53.204;6.502;2023-08-30T14:31:53;24.10;90.10
22456;DHT22;11395;53.204;6.502;2023-08-30T14:34:20;24.10;90.30
22456;DHT22;11395;53.204;6.502;2023-08-30T14:36:46;24.10;90.70
22456;DHT22;11395;53.204;6.502;2023-08-30T14:39:14;24.20;90.30
22456;DHT22;11395;53.204;6.502;2023-08-30T14:41:40;24.20;90.30
22456;DHT22;11395;53.204;6.502;2023-08-30T14:44:07;24.20;90.20
22456;DHT22;11395;53.204;6.502;2023-08-30T14:46:34;24.20;90.10
22456;DHT22;11395;53.204;6.502;2023-08-30T14:49:00;24.20;89.90
22456;DHT22;11395;53.204;6.502;2023-08-30T14:51:26;24.30;89.50
22456;DHT22;11395;53.204;6.502;2023-08-30T14:53:52;24.30;90.00
22456;DHT22;11395;53.204;6.502;2023-08-30T14:56:18;24.30;90.10
22456;DHT22;11395;53.204;6.502;2023-08-30T14:58:45;24.30;90.10
22456;DHT22;11395;53.204;6.502;2023-08-30T15:01:15;24.30;90.10
22456;DHT22;11395;53.204;6.502;2023-08-30T15:03:42;24.30;90.20
22456;DHT22;11395;53.204;6.502;2023-08-30T15:06:08;24.30;90.20
22456;DHT22;11395;53.204;6.502;2023-08-30T15:08:35;24.30;90.10
22456;DHT22;11395;53.204;6.502;2023-08-30T15:11:01;24.30;90.20
22456;DHT22;11395;53.204;6.502;2023-08-30T15:13:29;24.30;90.20
22456;DHT22;11395;53.204;6.502;2023-08-30T15:15:55;24.30;90.20
22456;DHT22;11395;53.204;6.502;2023-08-30T15:18:21;24.40;90.30
22456;DHT22;11395;53.204;6.502;2023-08-30T15:20:50;24.30;90.20
22456;DHT22;11395;53.204;6.502;2023-08-30T15:23:17;24.10;87.40
22456;DHT22;11395;53.204;6.502;2023-08-30T15:25:47;24.10;90.10
22456;DHT22;11395;53.204;6.502;2023-08-30T15:28:14;24.20;90.80
22456;DHT22;11395;53.204;6.502;2023-08-30T15:30:44;24.20;90.20
22456;DHT22;11395;53.204;6.502;2023-08-30T15:33:11;24.30;90.60
22456;DHT22;11395;53.204;6.502;2023-08-30T15:35:39;24.20;89.50
22456;DHT22;11395;53.204;6.502;2023-08-30T15:38:06;24.20;90.20
22456;DHT22;11395;53.204;6.502;2023-08-30T15:40:32;24.20;90.00